Time;durP1;ratioP1;P1;durP2;ratioP2;P2;SDS_P1;SDS_P2;PMS_P1;PMS_P2;Temp;Humidity;BMP_temperature;BMP_pressure;BME280_temperature;BME280_humidity;BME280_pressure;Samples;Min_cycle;Max_cycle;Signal;HPM_P1;HPM_P2
2023/03/23 00:02:45;;;;;;;9.13;7.88;;;23.70;69.90;;;;;;6063650;28;94224;-68
2023/03/23 00:05:50;;;;;;;9.18;8.25;;;23.60;69.50;;;;;;6064531;28;94246;-68
2023/03/23 00:08:56;;;;;;;9.60;8.65;;;23.60;69.60;;;;;;6058842;28;94345;-69
2023/03/23 00:12:05;;;;;;;9.15;8.25;;;23.60;69.90;;;;;;6064774;28;93358;-68
2023/03/23 00:15:12;;;;;;;9.60;8.70;;;23.60;70.00;;;;;;6055982;28;94188;-68
2023/03/23 00:18:20;;;;;;;9.90;9.00;;;23.60;70.00;;;;;;6073303;28;95917;-69
2023/03/23 00:21:25;;;;;;;9.52;8.63;;;23.60;70.10;;;;;;6056829;28;95370;-69
2023/03/23 00:24:27;;;;;;;9.55;8.65;;;23.60;70.10;;;;;;6057093;28;94405;-69
2023/03/23 00:27:30;;;;;;;9.18;8.38;;;23.60;70.10;;;;;;6055883;28;94449;-69
2023/03/23 00:30:33;;;;;;;9.30;8.40;;;23.60;70.20;;;;;;6057000;28;94162;-69
2023/03/23 00:33:40;;;;;;;9.73;8.73;;;23.60;70.20;;;;;;6060778;28;94232;-69
2023/03/23 00:36:42;;;;;;;9.73;8.73;;;23.60;70.20;;;;;;6078996;28;94145;-68
2023/03/23 00:39:46;;;;;;;9.30;8.40;;;23.60;70.30;;;;;;6070266;28;94252;-68
2023/03/23 00:42:49;;;;;;;9.85;8.85;;;23.60;70.30;;;;;;6059370;28;93717;-68
2023/03/23 00:45:53;;;;;;;9.73;8.73;;;23.60;70.30;;;;;;6057493;28;94156;-69
2023/03/23 00:48:56;;;;;;;9.85;8.85;;;23.60;70.30;;;;;;6059077;28;94287;-69
2023/03/23 00:51:59;;;;;;;9.20;8.38;;;23.50;70.30;;;;;;6058259;28;95410;-68
2023/03/23 00:55:01;;;;;;;9.70;8.80;;;23.60;70.40;;;;;;6065497;28;94175;-68
2023/03/23 00:58:05;;;;;;;9.73;8.82;;;23.50;70.30;;;;;;6046629;28;94066;-68
2023/03/23 01:01:07;;;;;;;9.73;8.75;;;23.50;70.30;;;;;;6067557;28;93024;-68
2023/03/23 01:04:12;;;;;;;9.98;8.98;;;23.50;70.40;;;;;;6064850;28;94083;-68
2023/03/23 01:07:14;;;;;;;9.63;8.68;;;23.50;70.40;;;;;;6060157;28;93024;-68
2023/03/23 01:10:17;;;;;;;9.73;8.82;;;23.50;70.30;;;;;;6061901;28;94136;-69
2023/03/23 01:13:22;;;;;;;8.98;8.18;;;23.50;70.30;;;;;;6070374;28;93289;-68
2023/03/23 01:16:25;;;;;;;9.38;8.48;;;23.50;70.30;;;;;;6058388;28;94080;-68
2023/03/23 01:19:27;;;;;;;9.52;8.63;;;23.50;70.30;;;;;;6061808;28;94135;-68
2023/03/23 01:22:29;;;;;;;8.60;7.80;;;23.50;70.50;;;;;;6072755;28;93964;-69
2023/03/23 01:25:36;;;;;;;7.93;7.20;;;23.50;70.30;;;;;;6076460;28;94007;-69
2023/03/23 01:28:40;;;;;;;8.10;7.30;;;23.50;70.00;;;;;;6067882;28;94165;-68
2023/03/23 01:31:42;;;;;;;8.32;7.53;;;23.50;69.30;;;;;;6060723;28;94165;-68
2023/03/23 01:34:44;;;;;;;8.10;7.30;;;23.50;69.30;;;;;;6069301;28;94124;-68
2023/03/23 01:37:47;;;;;;;8.18;7.38;;;23.40;69.40;;;;;;6059651;28;93938;-68
2023/03/23 01:40:49;;;;;;;8.27;7.47;;;23.40;69.60;;;;;;6063698;28;94115;-68
2023/03/23 01:44:02;;;;;;;8.60;7.70;;;23.40;69.60;;;;;;6059106;28;93479;-68
2023/03/23 01:47:04;;;;;;;8.18;7.40;;;23.40;69.70;;;;;;6065004;28;93322;-68
2023/03/23 01:50:07;;;;;;;8.30;7.50;;;23.40;69.80;;;;;;6065602;28;94080;-68
2023/03/23 01:53:11;;;;;;;8.65;7.78;;;23.40;69.80;;;;;;6068262;28;95404;-69
2023/03/23 01:56:18;;;;;;;7.82;7.10;;;23.40;69.90;;;;;;6062120;28;94110;-68
2023/03/23 01:59:23;;;;;;;7.53;6.82;;;23.40;70.00;;;;;;6059861;28;94469;-68
2023/03/23 02:02:26;;;;;;;8.07;7.28;;;23.40;70.00;;;;;;6072889;28;94207;-68
2023/03/23 02:05:33;;;;;;;7.63;6.88;;;23.40;70.10;;;;;;6059725;28;94138;-68
2023/03/23 02:08:36;;;;;;;8.13;7.32;;;23.40;70.10;;;;;;6048856;28;94047;-68
2023/03/23 02:11:38;;;;;;;8.10;7.30;;;23.40;70.10;;;;;;6059161;28;94312;-68
2023/03/23 02:14:42;;;;;;;8.40;7.60;;;23.40;70.10;;;;;;6059890;28;93498;-68
2023/03/23 02:17:51;;;;;;;8.05;7.20;;;23.40;70.10;;;;;;6060306;28;94055;-68
2023/03/23 02:21:27;;;;;;;8.07;7.35;;;23.40;70.10;;;;;;6059700;28;94077;-68
2023/03/23 02:24:56;;;;;;;7.97;7.18;;;23.40;70.20;;;;;;6060563;28;95131;-68
2023/03/23 02:28:26;;;;;;;9.27;8.10;;;23.40;70.10;;;;;;6053766;28;94144;-68
2023/03/23 02:31:51;;;;;;;8.32;7.53;;;23.40;70.20;;;;;;6059354;28;94141;-68
2023/03/23 02:34:59;;;;;;;8.20;7.40;;;23.40;70.20;;;;;;6061102;28;94223;-69
2023/03/23 02:38:05;;;;;;;8.30;7.45;;;23.30;70.20;;;;;;6058220;28;94156;-68
2023/03/23 02:41:09;;;;;;;8.32;7.53;;;23.30;70.20;;;;;;6059308;28;94136;-68
2023/03/23 02:44:13;;;;;;;8.63;7.82;;;23.30;70.30;;;;;;6054505;28;94571;-68
2023/03/23 02:47:20;;;;;;;8.63;7.82;;;23.30;70.30;;;;;;6063003;28;93653;-68
2023/03/23 02:50:26;;;;;;;9.13;8.23;;;23.30;70.30;;;;;;6058897;28;94074;-68
2023/03/23 02:53:30;;;;;;;9.10;8.20;;;23.30;70.30;;;;;;6062294;28;94083;-69
2023/03/23 02:56:33;;;;;;;9.55;8.55;;;23.30;70.30;;;;;;6057717;28;95231;-68
2023/03/23 02:59:35;;;;;;;9.35;8.45;;;23.30;70.30;;;;;;6058316;28;94220;-68
2023/03/23 03:02:41;;;;;;;9.23;8.35;;;23.30;70.30;;;;;;6063135;28;94607;-68
2023/03/23 03:05:51;;;;;;;9.63;8.73;;;23.30;70.30;;;;;;6062353;28;94074;-68
2023/03/23 03:08:58;;;;;;;9.93;8.93;;;23.30;70.30;;;;;;6059922;28;94131;-68
2023/03/23 03:12:08;;;;;;;9.50;8.48;;;23.30;70.40;;;;;;6058715;28;94133;-68
2023/03/23 03:15:22;;;;;;;9.55;8.65;;;23.30;70.40;;;;;;6058746;28;94449;-68
2023/03/23 03:18:29;;;;;;;9.70;8.80;;;23.30;70.40;;;;;;6057437;28;93377;-69
2023/03/23 03:21:36;;;;;;;9.82;8.93;;;23.30;70.40;;;;;;6062595;28;94083;-68
2023/03/23 03:24:40;;;;;;;9.70;8.70;;;23.30;70.50;;;;;;6063775;28;93498;-68
2023/03/23 03:27:45;;;;;;;10.05;9.10;;;23.30;70.50;;;;;;6057087;28;95185;-68
2023/03/23 03:30:51;;;;;;;10.23;9.23;;;23.30;70.50;;;;;;6058017;28;94035;-68
2023/03/23 03:33:53;;;;;;;10.20;9.20;;;23.30;70.40;;;;;;6067350;28;94220;-68
2023/03/23 03:36:59;;;;;;;10.35;9.35;;;23.30;70.50;;;;;;6062149;28;94087;-67
2023/03/23 03:40:01;;;;;;;10.27;9.27;;;23.20;70.40;;;;;;6064171;28;94165;-68
2023/03/23 03:43:05;;;;;;;10.50;9.48;;;23.20;70.40;;;;;;6060024;28;94108;-69
2023/03/23 03:46:07;;;;;;;10.25;9.25;;;23.30;70.50;;;;;;6058518;28;94161;-68
2023/03/23 03:49:12;;;;;;;10.45;9.40;;;23.30;70.50;;;;;;6060157;28;93387;-68
2023/03/23 03:52:15;;;;;;;10.63;9.57;;;23.30;70.50;;;;;;6057702;28;92949;-69
2023/03/23 03:55:17;;;;;;;11.00;9.90;;;23.20;70.50;;;;;;6066009;28;94147;-68
2023/03/23 03:58:19;;;;;;;10.38;9.38;;;23.20;70.50;;;;;;6056444;28;95138;-68
2023/03/23 04:01:23;;;;;;;10.23;9.23;;;23.20;70.50;;;;;;6063077;28;94031;-68
2023/03/23 04:04:25;;;;;;;10.60;9.57;;;23.20;70.50;;;;;;6057295;28;94323;-68
2023/03/23 04:07:29;;;;;;;11.32;10.23;;;23.20;70.30;;;;;;6057599;28;94519;-68
2023/03/23 04:10:32;;;;;;;10.65;9.55;;;23.20;70.30;;;;;;6056143;28;94378;-68
2023/03/23 04:13:35;;;;;;;11.00;9.90;;;23.20;70.30;;;;;;6068705;28;93001;-68
2023/03/23 04:16:37;;;;;;;11.23;10.13;;;23.20;70.40;;;;;;6062644;28;94202;-68
2023/03/23 04:19:39;;;;;;;10.10;9.20;;;23.20;70.50;;;;;;6066934;28;93365;-69
2023/03/23 04:22:43;;;;;;;10.63;9.63;;;23.20;70.50;;;;;;6065798;28;94094;-69
2023/03/23 04:25:46;;;;;;;11.80;10.60;;;23.20;70.50;;;;;;6055856;28;94508;-67
2023/03/23 04:28:50;;;;;;;11.38;10.27;;;23.20;70.50;;;;;;6056315;28;95381;-68
2023/03/23 04:31:52;;;;;;;10.35;9.35;;;23.20;70.50;;;;;;6056647;28;94309;-68
2023/03/23 04:34:54;;;;;;;11.00;9.90;;;23.20;70.60;;;;;;6058586;28;94238;-68
2023/03/23 04:37:58;;;;;;;11.10;10.00;;;23.20;70.50;;;;;;6065091;28;94200;-68
2023/03/23 04:41:01;;;;;;;11.90;10.68;;;23.10;70.50;;;;;;6059036;28;94230;-68
2023/03/23 04:44:04;;;;;;;10.35;9.32;;;23.20;70.50;;;;;;6060542;28;94318;-68
2023/03/23 04:47:09;;;;;;;10.32;9.32;;;23.20;70.50;;;;;;6060053;28;94191;-68
2023/03/23 04:50:13;;;;;;;10.55;9.55;;;23.20;70.30;;;;;;6060152;28;93421;-67
2023/03/23 04:53:17;;;;;;;10.63;9.63;;;23.20;70.30;;;;;;6072463;28;95411;-68
2023/03/23 04:56:20;;;;;;;11.05;9.98;;;23.20;70.40;;;;;;6070395;28;94079;-68
2023/03/23 04:59:27;;;;;;;10.52;9.52;;;23.10;70.30;;;;;;6061868;28;95470;-68
2023/03/23 05:02:30;;;;;;;10.95;9.85;;;23.10;70.30;;;;;;6075524;28;94321;-68
2023/03/23 05:05:32;;;;;;;10.73;9.73;;;23.20;70.30;;;;;;6061111;28;94066;-68
2023/03/23 05:08:38;;;;;;;10.93;9.82;;;23.20;70.30;;;;;;6062367;28;94688;-68
2023/03/23 05:11:40;;;;;;;10.65;9.65;;;23.20;70.30;;;;;;6059585;28;96725;-68
2023/03/23 05:14:43;;;;;;;9.90;9.00;;;23.30;70.30;;;;;;6053333;28;94348;-68
2023/03/23 05:17:45;;;;;;;9.80;8.80;;;23.30;70.30;;;;;;6060533;28;94153;-68
2023/03/23 05:20:48;;;;;;;9.52;8.63;;;23.20;70.10;;;;;;6062423;28;93800;-68
2023/03/23 05:23:54;;;;;;;9.85;8.85;;;23.30;70.30;;;;;;6059732;28;94657;-68
2023/03/23 05:26:56;;;;;;;10.25;9.18;;;23.30;70.30;;;;;;6060369;28;94079;-68
2023/03/23 05:30:00;;;;;;;9.57;8.68;;;23.30;70.20;;;;;;6065156;28;95135;-68
2023/03/23 05:33:03;;;;;;;9.82;8.93;;;23.30;70.10;;;;;;6061136;28;94178;-68
2023/03/23 05:36:10;;;;;;;9.52;8.63;;;23.30;70.20;;;;;;6060505;28;94720;-68
2023/03/23 05:39:14;;;;;;;9.95;8.95;;;23.40;70.20;;;;;;6053118;28;93258;-68
2023/03/23 05:42:17;;;;;;;10.10;9.10;;;23.30;71.00;;;;;;6051589;28;94140;-68
2023/03/23 05:45:19;;;;;;;9.75;8.85;;;23.40;70.10;;;;;;6060468;28;94439;-68
2023/03/23 05:48:21;;;;;;;9.13;8.23;;;23.40;70.10;;;;;;6070141;28;94055;-68
2023/03/23 05:51:23;;;;;;;9.63;8.63;;;23.40;70.10;;;;;;6059812;28;93473;-68
2023/03/23 05:54:27;;;;;;;9.55;8.65;;;23.40;70.10;;;;;;6062559;28;94568;-68
2023/03/23 05:57:29;;;;;;;8.75;7.95;;;23.40;70.10;;;;;;6052376;28;94138;-68
2023/03/23 06:00:32;;;;;;;9.50;8.57;;;23.40;70.10;;;;;;6056536;28;95181;-68
2023/03/23 06:03:35;;;;;;;9.80;7.90;;;23.40;70.10;;;;;;6056891;28;94321;-68
2023/03/23 06:06:37;;;;;;;8.85;7.95;;;23.50;70.50;;;;;;6060199;28;94737;-68
2023/03/23 06:09:41;;;;;;;9.05;8.15;;;23.50;70.60;;;;;;6059614;28;94271;-68
2023/03/23 06:12:43;;;;;;;9.68;8.68;;;23.50;70.60;;;;;;6061883;28;94066;-68
2023/03/23 06:15:45;;;;;;;11.05;8.00;;;23.60;70.80;;;;;;6062668;28;96496;-68
2023/03/23 06:18:48;;;;;;;8.50;7.65;;;23.60;70.90;;;;;;6058721;28;94196;-68
2023/03/23 06:21:50;;;;;;;9.10;8.20;;;23.60;70.80;;;;;;6048412;28;93973;-67
2023/03/23 06:24:56;;;;;;;8.52;7.72;;;23.60;70.80;;;;;;6047155;28;94085;-67
2023/03/23 06:27:58;;;;;;;8.55;7.70;;;23.60;70.80;;;;;;6056951;28;94243;-68
2023/03/23 06:31:01;;;;;;;8.10;7.30;;;23.60;70.70;;;;;;6057883;28;95138;-67
2023/03/23 06:34:03;;;;;;;7.50;6.80;;;23.70;70.80;;;;;;6059109;28;94482;-68
2023/03/23 06:37:05;;;;;;;8.45;6.97;;;23.70;69.90;;;;;;6057752;28;94045;-68
2023/03/23 06:40:10;;;;;;;7.78;7.00;;;23.70;69.10;;;;;;6060784;28;94210;-68
2023/03/23 06:43:12;;;;;;;8.00;7.20;;;23.70;69.20;;;;;;6063473;28;94602;-68
2023/03/23 06:46:14;;;;;;;7.20;6.50;;;23.70;69.40;;;;;;6057873;28;94409;-68
2023/03/23 06:49:16;;;;;;;7.45;6.75;;;23.70;69.50;;;;;;6056824;28;94179;-68
2023/03/23 06:52:18;;;;;;;7.03;6.35;;;23.70;69.60;;;;;;6058189;28;93362;-68
2023/03/23 06:55:22;;;;;;;8.25;6.30;;;23.70;69.70;;;;;;6059951;28;93412;-68
2023/03/23 06:58:24;;;;;;;8.02;6.53;;;23.70;69.80;;;;;;6057096;28;94339;-68
2023/03/23 07:01:27;;;;;;;7.55;6.22;;;23.70;69.80;;;;;;6060632;28;95077;-68
2023/03/23 07:04:30;;;;;;;7.13;6.32;;;23.70;69.80;;;;;;6055817;28;94366;-68
2023/03/23 07:07:32;;;;;;;7.40;6.70;;;23.70;69.90;;;;;;6071256;28;94129;-68
2023/03/23 07:10:36;;;;;;;8.48;6.50;;;23.70;69.90;;;;;;6056212;28;94103;-69
2023/03/23 07:13:38;;;;;;;8.45;6.20;;;23.70;70.00;;;;;;6058290;28;94289;-68
2023/03/23 07:16:40;;;;;;;6.70;6.10;;;23.70;70.00;;;;;;6065100;28;94135;-68
2023/03/23 07:19:42;;;;;;;6.68;5.97;;;23.70;69.90;;;;;;6057908;28;94206;-68
2023/03/23 07:22:44;;;;;;;6.40;5.80;;;23.80;69.60;;;;;;6057381;28;93360;-68
2023/03/23 07:25:48;;;;;;;8.00;5.70;;;23.80;69.20;;;;;;6058835;28;92987;-68
2023/03/23 07:28:50;;;;;;;6.55;5.68;;;23.80;68.70;;;;;;6067513;28;94291;-69
2023/03/23 07:31:52;;;;;;;5.90;5.15;;;23.90;68.40;;;;;;6057373;28;95141;-68
2023/03/23 07:34:55;;;;;;;6.72;5.55;;;23.80;68.10;;;;;;6057682;28;94051;-68
2023/03/23 07:37:58;;;;;;;6.05;5.45;;;23.80;68.10;;;;;;6068333;28;94233;-68
2023/03/23 07:41:01;;;;;;;6.90;5.72;;;23.90;68.30;;;;;;6057100;28;94127;-67
2023/03/23 07:44:04;;;;;;;5.07;4.60;;;23.90;68.40;;;;;;6048424;28;94225;-68
2023/03/23 07:47:06;;;;;;;5.50;5.00;;;23.90;68.50;;;;;;6058014;28;94126;-69
2023/03/23 07:50:09;;;;;;;6.43;5.30;;;23.90;68.60;;;;;;6057689;28;94171;-68
2023/03/23 07:53:11;;;;;;;5.38;4.88;;;23.90;68.60;;;;;;6059457;28;93455;-68
2023/03/23 07:56:18;;;;;;;5.18;4.68;;;23.90;68.70;;;;;;6057933;28;94441;-68
2023/03/23 07:59:21;;;;;;;5.40;4.47;;;23.90;68.70;;;;;;6056687;28;94220;-68
2023/03/23 08:02:23;;;;;;;5.35;4.85;;;23.90;68.80;;;;;;6054299;28;94985;-68
2023/03/23 08:05:27;;;;;;;5.40;4.90;;;23.90;68.80;;;;;;6065128;28;94165;-68
2023/03/23 08:08:30;;;;;;;5.55;5.05;;;23.90;68.90;;;;;;6051887;28;94134;-68
2023/03/23 08:11:33;;;;;;;5.40;4.90;;;24.00;69.10;;;;;;6061718;28;94229;-68
2023/03/23 08:14:35;;;;;;;5.25;4.75;;;24.00;69.10;;;;;;6058727;28;94143;-68
2023/03/23 08:17:37;;;;;;;5.10;4.60;;;24.00;69.40;;;;;;6060391;28;94324;-68
2023/03/23 08:20:40;;;;;;;5.28;4.78;;;24.00;69.60;;;;;;6066508;28;94180;-69
2023/03/23 08:23:42;;;;;;;4.78;4.28;;;24.00;69.60;;;;;;6058013;28;91946;-68
2023/03/23 08:26:45;;;;;;;5.03;4.53;;;24.00;69.80;;;;;;6057601;28;94136;-69
2023/03/23 08:29:48;;;;;;;5.10;4.60;;;24.00;70.00;;;;;;6055807;28;94229;-68
2023/03/23 08:32:51;;;;;;;5.47;4.90;;;24.10;70.10;;;;;;6058827;28;95130;-69
2023/03/23 08:35:57;;;;;;;4.65;4.25;;;24.00;70.20;;;;;;6059243;28;94102;-68
2023/03/23 08:38:59;;;;;;;5.05;4.47;;;24.10;70.40;;;;;;6062884;28;94105;-69
2023/03/23 08:42:03;;;;;;;5.20;4.43;;;24.10;70.60;;;;;;6055395;28;94368;-69
2023/03/23 08:45:07;;;;;;;4.75;4.25;;;24.10;70.80;;;;;;6057558;28;94192;-68
2023/03/23 08:48:10;;;;;;;4.82;4.32;;;24.10;70.90;;;;;;6058081;28;94105;-69
2023/03/23 08:51:13;;;;;;;5.28;4.30;;;24.10;71.00;;;;;;6060882;28;94443;-69
2023/03/23 08:54:15;;;;;;;4.18;3.78;;;24.10;71.20;;;;;;6062664;28;93350;-68
2023/03/23 08:57:19;;;;;;;4.88;4.00;;;24.10;71.30;;;;;;6058723;28;94074;-68
2023/03/23 09:00:24;;;;;;;4.63;4.13;;;24.10;71.50;;;;;;6055933;28;94055;-69
2023/03/23 09:03:26;;;;;;;4.55;4.15;;;24.10;71.60;;;;;;6059863;28;95255;-68
2023/03/23 09:06:28;;;;;;;4.30;3.90;;;24.10;71.70;;;;;;6055284;28;94698;-68
2023/03/23 09:09:30;;;;;;;5.10;4.00;;;24.10;71.80;;;;;;6068423;28;94362;-69
2023/03/23 09:12:35;;;;;;;4.43;4.03;;;24.10;72.00;;;;;;6056593;28;94160;-69
2023/03/23 09:15:37;;;;;;;4.25;3.85;;;24.10;72.20;;;;;;6047072;28;94073;-69
2023/03/23 09:18:39;;;;;;;4.28;3.88;;;24.10;72.20;;;;;;6056990;28;94243;-69
2023/03/23 09:21:42;;;;;;;4.40;3.97;;;24.10;72.30;;;;;;6067268;28;93058;-69
2023/03/23 09:24:44;;;;;;;4.60;4.20;;;24.20;72.60;;;;;;6064366;28;93449;-68
2023/03/23 09:27:52;;;;;;;4.22;3.83;;;24.10;73.00;;;;;;6060126;28;94462;-69
2023/03/23 09:30:58;;;;;;;4.80;3.67;;;24.20;73.30;;;;;;6065381;28;94157;-68
2023/03/23 10:45:49;;;;;;;3.83;3.42;;;24.30;75.00;;;;;;6060886;28;92345;-69
2023/03/23 10:48:53;;;;;;;4.20;3.80;;;24.30;75.20;;;;;;6059073;28;94163;-69
2023/03/23 10:52:01;;;;;;;4.00;3.63;;;24.30;75.20;;;;;;6054839;28;95211;-69
2023/03/23 10:55:07;;;;;;;4.00;3.65;;;24.30;75.30;;;;;;6058511;28;93577;-68
2023/03/23 10:58:12;;;;;;;6.13;4.45;;;24.30;75.30;;;;;;6064087;28;94185;-68
2023/03/23 11:01:15;;;;;;;4.30;3.90;;;24.30;75.40;;;;;;6055897;28;94216;-69
2023/03/23 11:04:19;;;;;;;4.78;3.80;;;24.30;75.50;;;;;;6056041;28;95108;-69
2023/03/23 11:07:26;;;;;;;4.45;4.00;;;24.30;75.50;;;;;;6057114;28;94272;-68
2023/03/23 11:10:36;;;;;;;5.05;4.20;;;24.30;75.50;;;;;;6065877;28;94931;-69
2023/03/23 11:13:43;;;;;;;4.53;4.13;;;24.30;75.60;;;;;;6048024;28;93682;-68
2023/03/23 11:16:52;;;;;;;4.07;3.78;;;24.30;75.70;;;;;;6062058;28;94168;-68
2023/03/23 11:19:55;;;;;;;4.65;4.22;;;24.30;75.70;;;;;;6068763;28;94248;-69
2023/03/23 11:22:57;;;;;;;7.32;4.20;;;24.30;75.70;;;;;;6049576;28;95133;-68
2023/03/23 11:26:12;;;;;;;7.40;4.47;;;24.30;75.70;;;;;;6048209;28;94250;-68
2023/03/23 11:29:17;;;;;;;5.43;4.10;;;24.40;76.00;;;;;;6045838;28;95147;-68
2023/03/23 11:32:24;;;;;;;5.10;4.25;;;24.40;76.00;;;;;;6057476;28;94521;-68
2023/03/23 11:35:28;;;;;;;5.88;4.80;;;24.40;76.10;;;;;;6042729;28;94380;-69
2023/03/23 11:38:30;;;;;;;5.47;4.47;;;24.40;76.10;;;;;;6063431;28;94078;-68
2023/03/23 11:41:36;;;;;;;5.07;4.28;;;24.40;76.20;;;;;;6048770;28;94197;-68
2023/03/23 11:44:44;;;;;;;4.55;4.10;;;24.40;76.20;;;;;;6057837;28;93562;-68
2023/03/23 11:47:56;;;;;;;6.65;4.28;;;24.40;76.20;;;;;;6051095;28;94109;-69
2023/03/23 11:51:02;;;;;;;5.85;4.22;;;24.40;76.30;;;;;;6050265;28;94162;-69
2023/03/23 11:54:11;;;;;;;5.20;4.32;;;24.40;76.40;;;;;;6048456;28;95095;-67
2023/03/23 11:57:14;;;;;;;4.80;4.10;;;24.50;76.60;;;;;;6057379;28;94518;-67
2023/03/23 12:00:18;;;;;;;4.50;3.90;;;24.40;76.40;;;;;;6056763;28;94017;-67
2023/03/23 12:03:46;;;;;;;6.53;4.60;;;24.40;76.30;;;;;;6050787;28;94126;-68
2023/03/23 12:06:55;;;;;;;4.72;4.05;;;24.40;75.90;;;;;;6051633;28;93954;-68
2023/03/23 12:10:06;;;;;;;4.70;3.50;;;24.40;75.00;;;;;;6055654;28;94049;-68
2023/03/23 12:13:27;;;;;;;4.25;3.80;;;24.40;72.20;;;;;;6060263;28;94207;-67
2023/03/23 12:16:42;;;;;;;6.28;4.40;;;24.40;70.80;;;;;;6055329;28;94056;-67
2023/03/23 12:19:53;;;;;;;4.68;4.07;;;24.30;70.10;;;;;;6056291;28;94153;-68
2023/03/23 12:23:18;;;;;;;6.93;4.78;;;24.30;69.80;;;;;;6052850;28;94189;-68
2023/03/23 12:26:26;;;;;;;4.35;3.95;;;24.30;69.20;;;;;;6050867;28;94144;-68
2023/03/23 12:29:46;;;;;;;3.75;3.38;;;24.30;68.80;;;;;;6051203;28;94147;-67
2023/03/23 12:33:17;;;;;;;5.05;3.60;;;24.30;68.40;;;;;;6053066;28;94124;-68
2023/03/23 12:36:31;;;;;;;3.35;3.05;;;24.30;67.70;;;;;;6049944;28;94418;-67
2023/03/23 12:39:54;;;;;;;3.10;2.80;;;24.30;67.40;;;;;;6056500;28;94448;-67
2023/03/23 12:43:02;;;;;;;3.10;2.80;;;24.30;67.80;;;;;;6056701;28;94140;-68
2023/03/23 12:46:35;;;;;;;3.85;2.75;;;24.30;67.90;;;;;;6050934;28;94141;-68
2023/03/23 12:49:44;;;;;;;6.38;3.15;;;24.20;68.10;;;;;;6053796;28;92811;-67
2023/03/23 12:52:54;;;;;;;3.20;2.90;;;24.30;68.20;;;;;;6054875;28;93016;-67
2023/03/23 12:56:17;;;;;;;3.78;2.72;;;24.30;68.40;;;;;;6057878;28;94523;-67
2023/03/23 12:59:26;;;;;;;3.60;2.88;;;24.30;68.50;;;;;;6072522;28;95331;-68
2023/03/23 13:02:31;;;;;;;3.55;2.85;;;24.30;68.70;;;;;;6056856;28;94157;-67
2023/03/23 13:05:45;;;;;;;2.70;2.50;;;24.30;68.90;;;;;;6061869;28;94096;-68
2023/03/23 13:08:54;;;;;;;3.25;2.70;;;24.20;68.90;;;;;;6055054;28;94174;-68
2023/03/23 13:11:59;;;;;;;2.83;2.60;;;24.20;69.00;;;;;;6060982;28;93997;-67
2023/03/23 13:15:08;;;;;;;4.22;2.30;;;24.20;69.10;;;;;;6058999;28;94175;-67
2023/03/23 13:18:17;;;;;;;3.15;2.72;;;24.20;69.30;;;;;;6062317;28;94268;-67
2023/03/23 13:21:25;;;;;;;2.80;2.60;;;24.30;69.40;;;;;;6061033;28;93712;-67
2023/03/23 13:24:32;;;;;;;2.60;2.40;;;24.20;69.40;;;;;;6057631;28;94402;-67
2023/03/23 13:27:35;;;;;;;3.55;2.40;;;24.20;69.50;;;;;;6057796;28;94106;-67
2023/03/23 13:30:37;;;;;;;2.80;2.60;;;24.30;69.60;;;;;;6059513;28;95169;-67
2023/03/23 13:33:40;;;;;;;3.10;2.50;;;24.20;69.60;;;;;;6065556;28;93022;-68
2023/03/23 13:36:43;;;;;;;2.90;2.40;;;24.20;69.70;;;;;;6061670;28;94230;-67
2023/03/23 13:39:55;;;;;;;2.50;2.30;;;24.30;69.80;;;;;;6062004;28;94197;-67
2023/03/23 13:42:59;;;;;;;2.45;2.25;;;24.20;69.80;;;;;;6060133;28;94198;-67
2023/03/23 13:46:14;;;;;;;2.55;2.35;;;24.20;69.80;;;;;;6061284;28;94115;-67
2023/03/23 13:49:22;;;;;;;2.35;2.15;;;24.20;69.90;;;;;;6058262;28;94157;-67
2023/03/23 13:52:37;;;;;;;2.88;2.67;;;24.30;70.00;;;;;;6061982;28;92604;-67
2023/03/23 13:55:43;;;;;;;2.38;2.17;;;24.20;70.00;;;;;;6061193;28;93251;-67
2023/03/23 13:58:47;;;;;;;3.20;2.20;;;24.20;70.10;;;;;;6064591;28;94149;-67
2023/03/23 14:01:50;;;;;;;2.40;2.20;;;24.20;70.00;;;;;;6058958;28;95088;-67
2023/03/23 14:04:52;;;;;;;3.08;2.33;;;24.20;69.80;;;;;;6054113;28;94094;-67
2023/03/23 14:07:56;;;;;;;2.20;2.00;;;24.20;70.00;;;;;;6056034;28;94103;-67
2023/03/23 14:11:03;;;;;;;2.90;2.25;;;24.20;70.00;;;;;;6061353;28;94038;-67
2023/03/23 14:14:07;;;;;;;2.30;2.10;;;24.20;70.10;;;;;;6063740;28;94146;-67
2023/03/23 14:17:14;;;;;;;2.45;2.25;;;24.20;70.00;;;;;;6064486;28;94198;-67
2023/03/23 14:20:24;;;;;;;2.35;2.10;;;24.20;70.10;;;;;;6059898;28;94232;-67
2023/03/23 14:23:27;;;;;;;2.88;2.50;;;24.20;70.10;;;;;;6051863;28;93463;-68
2023/03/23 14:26:34;;;;;;;2.20;1.92;;;24.20;70.20;;;;;;6051274;28;94435;-68
2023/03/23 14:29:36;;;;;;;2.58;2.10;;;24.20;70.20;;;;;;6061063;28;94272;-67
2023/03/23 14:32:38;;;;;;;3.40;2.35;;;24.20;70.10;;;;;;6057674;28;95151;-68
2023/03/23 14:35:46;;;;;;;2.75;2.25;;;24.20;70.00;;;;;;6059808;28;94173;-68
2023/03/23 14:38:48;;;;;;;2.83;2.30;;;24.20;70.10;;;;;;6058751;28;94182;-67
2023/03/23 14:41:52;;;;;;;3.13;2.25;;;24.20;70.00;;;;;;6062914;28;94137;-67
2023/03/23 14:44:54;;;;;;;4.95;2.40;;;24.10;69.40;;;;;;6056476;28;94475;-67
2023/03/23 14:47:59;;;;;;;2.55;2.00;;;24.10;69.10;;;;;;6058072;28;94597;-67
2023/03/23 14:51:04;;;;;;;2.83;2.15;;;24.10;68.80;;;;;;6058362;28;94536;-67
2023/03/23 14:54:10;;;;;;;2.20;2.00;;;24.10;68.50;;;;;;6066927;28;92301;-67
2023/03/23 14:57:16;;;;;;;2.28;2.08;;;24.10;68.30;;;;;;6062330;28;94710;-68
2023/03/23 15:00:21;;;;;;;2.63;1.98;;;24.10;67.80;;;;;;6058339;28;94129;-68
2023/03/23 15:03:24;;;;;;;4.15;2.00;;;24.10;67.90;;;;;;6056356;28;95083;-67
2023/03/23 15:06:29;;;;;;;5.00;2.15;;;24.10;67.70;;;;;;6061042;28;94206;-67
2023/03/23 15:09:32;;;;;;;3.72;2.25;;;24.10;67.60;;;;;;6069253;28;94338;-68
2023/03/23 15:12:36;;;;;;;2.20;1.92;;;24.00;67.60;;;;;;6062069;28;94106;-68
2023/03/23 15:15:38;;;;;;;2.35;2.15;;;24.00;67.80;;;;;;6046627;28;94080;-68
2023/03/23 15:18:45;;;;;;;2.42;2.00;;;24.00;67.70;;;;;;6058678;28;93033;-68
2023/03/23 15:21:50;;;;;;;2.70;1.90;;;24.00;67.80;;;;;;6059386;28;94100;-68
2023/03/23 15:24:54;;;;;;;2.45;1.98;;;24.00;67.90;;;;;;6050982;28;93545;-67
2023/03/23 15:27:59;;;;;;;2.42;1.90;;;24.00;67.90;;;;;;6059452;28;94169;-68
2023/03/23 15:31:03;;;;;;;2.88;2.00;;;24.00;68.00;;;;;;6057865;28;94153;-67
2023/03/23 15:34:07;;;;;;;3.08;2.25;;;24.00;67.90;;;;;;6058098;28;94252;-68
2023/03/23 15:37:20;;;;;;;2.30;2.10;;;24.00;67.90;;;;;;6059585;28;94190;-68
2023/03/23 15:40:24;;;;;;;2.03;1.80;;;24.00;67.90;;;;;;6056374;28;94227;-68
2023/03/23 15:43:29;;;;;;;2.22;1.80;;;23.90;67.50;;;;;;6052220;28;94193;-68
2023/03/23 15:46:31;;;;;;;2.03;1.83;;;24.00;67.10;;;;;;6059044;28;94085;-67
2023/03/23 15:49:33;;;;;;;3.33;2.30;;;23.90;66.70;;;;;;6058518;28;94124;-67
2023/03/23 15:52:35;;;;;;;3.28;1.88;;;24.00;67.10;;;;;;6064053;28;93039;-68
2023/03/23 15:55:39;;;;;;;3.03;1.92;;;23.90;66.60;;;;;;6065727;28;94027;-68
2023/03/23 15:58:42;;;;;;;3.08;2.30;;;23.90;66.80;;;;;;6057176;28;94110;-68
2023/03/23 16:01:44;;;;;;;2.65;2.22;;;23.90;66.60;;;;;;6058463;28;93467;-67
2023/03/23 16:04:47;;;;;;;2.70;2.13;;;23.90;66.70;;;;;;6058478;28;95044;-68
2023/03/23 16:07:49;;;;;;;2.78;2.20;;;23.90;66.80;;;;;;6049378;28;94111;-67
2023/03/23 16:10:52;;;;;;;3.20;2.00;;;23.90;66.60;;;;;;6058121;28;94066;-68
2023/03/23 16:13:56;;;;;;;3.38;2.30;;;23.90;66.40;;;;;;6057203;28;94132;-67
2023/03/23 16:16:58;;;;;;;3.22;2.38;;;23.90;66.60;;;;;;6066511;28;94476;-67
2023/03/23 16:20:00;;;;;;;2.80;2.20;;;23.90;66.70;;;;;;6070055;28;94526;-67
2023/03/23 16:23:02;;;;;;;3.75;2.35;;;23.90;66.70;;;;;;6058355;28;93770;-67
2023/03/23 16:26:04;;;;;;;3.00;1.98;;;23.90;66.90;;;;;;6062167;28;93283;-67
2023/03/23 16:29:12;;;;;;;3.72;2.63;;;23.90;67.00;;;;;;6080492;28;94140;-67
2023/03/23 16:32:14;;;;;;;3.53;2.50;;;23.90;67.20;;;;;;6061338;28;94249;-67
2023/03/23 16:35:17;;;;;;;3.40;2.22;;;23.90;67.50;;;;;;6060415;28;95040;-66
2023/03/23 16:38:19;;;;;;;3.53;2.08;;;23.90;67.60;;;;;;6062334;28;94398;-67
2023/03/23 16:41:23;;;;;;;2.80;2.17;;;23.90;68.40;;;;;;6069962;28;93773;-67
2023/03/23 16:44:26;;;;;;;2.88;2.30;;;23.90;68.80;;;;;;6065544;28;94258;-67
2023/03/23 16:47:28;;;;;;;3.38;2.00;;;23.90;69.60;;;;;;6053019;28;94160;-67
2023/03/23 16:50:31;;;;;;;2.65;2.17;;;23.80;68.30;;;;;;6061320;28;94442;-67
2023/03/23 16:53:33;;;;;;;3.83;2.50;;;23.90;68.10;;;;;;6063035;28;94094;-67
2023/03/23 16:56:35;;;;;;;4.70;2.90;;;23.80;68.00;;;;;;6076293;28;93399;-67
2023/03/23 16:59:39;;;;;;;2.97;2.35;;;23.80;68.60;;;;;;6061637;28;94251;-67
2023/03/23 17:02:42;;;;;;;4.32;2.53;;;23.90;68.80;;;;;;6062862;28;94078;-67
2023/03/23 17:05:44;;;;;;;3.42;2.13;;;23.80;69.00;;;;;;6060485;28;95060;-67
2023/03/23 17:08:46;;;;;;;3.03;2.40;;;23.80;70.00;;;;;;6061612;28;94347;-67
2023/03/23 17:11:48;;;;;;;2.40;2.20;;;23.90;69.10;;;;;;6071576;28;94138;-66
2023/03/23 17:14:52;;;;;;;3.03;2.40;;;23.80;69.20;;;;;;6059561;28;94054;-66